Time;durP1;ratioP1;P1;durP2;ratioP2;P2;SDS_P1;SDS_P2;PMS_P1;PMS_P2;Temp;Humidity;BMP_temperature;BMP_pressure;BME280_temperature;BME280_humidity;BME280_pressure;Samples;Min_cycle;Max_cycle;Signal;HPM_P1;HPM_P2
2022/08/11 00:01:48;;;;;;;1.75;1.65;;;25.00;99.90;;;;;;5022271;28;20204;-77
2022/08/11 00:04:17;;;;;;;3.53;2.20;;;25.00;99.90;;;;;;5023858;28;20622;-77
2022/08/11 00:06:46;;;;;;;3.08;2.33;;;25.00;99.90;;;;;;5027369;28;20197;-76
2022/08/11 00:09:18;;;;;;;2.13;1.88;;;25.00;99.90;;;;;;5031093;28;20223;-78
2022/08/11 00:11:49;;;;;;;2.78;2.10;;;25.00;99.90;;;;;;5026811;28;20199;-77
2022/08/11 00:14:19;;;;;;;2.97;2.10;;;25.00;99.90;;;;;;5026221;28;20729;-77
2022/08/11 00:16:56;;;;;;;2.63;2.10;;;24.90;99.90;;;;;;5025908;28;20582;-76
2022/08/11 00:19:26;;;;;;;1.90;1.80;;;25.00;99.90;;;;;;5027789;28;20238;-77
2022/08/11 00:21:54;;;;;;;2.83;2.08;;;25.00;99.90;;;;;;5028473;28;20199;-76
2022/08/11 00:24:23;;;;;;;2.05;1.85;;;24.90;99.90;;;;;;5028902;28;20200;-77
2022/08/11 00:26:52;;;;;;;4.25;2.00;;;24.90;99.90;;;;;;5030309;28;20215;-77
2022/08/11 00:29:21;;;;;;;2.95;1.95;;;24.80;99.90;;;;;;5025006;28;20242;-77
2022/08/11 00:31:52;;;;;;;2.33;1.90;;;24.80;99.90;;;;;;5029330;28;20215;-77
2022/08/11 00:34:23;;;;;;;1.70;1.60;;;24.80;99.90;;;;;;5029370;28;20223;-76
2022/08/11 00:36:53;;;;;;;2.05;1.85;;;24.80;99.90;;;;;;5031664;28;20195;-77
2022/08/11 00:39:22;;;;;;;3.53;1.85;;;24.70;99.90;;;;;;5030544;28;20737;-76
2022/08/11 00:42:06;;;;;;;3.08;2.00;;;24.70;99.90;;;;;;5030832;28;20673;-76
2022/08/11 00:44:48;;;;;;;2.38;1.90;;;24.60;99.90;;;;;;5028215;28;20202;-78
2022/08/11 00:47:24;;;;;;;5.63;1.90;;;24.50;99.90;;;;;;5029452;28;20219;-78
2022/08/11 00:50:02;;;;;;;3.92;2.10;;;24.50;99.90;;;;;;5035267;28;20219;-77
2022/08/11 00:53:06;;;;;;;3.33;2.45;;;24.50;99.90;;;;;;5029507;28;20227;-77
2022/08/11 00:56:29;;;;;;;3.63;2.20;;;24.40;99.90;;;;;;5016027;28;20547;-76
2022/08/11 00:59:32;;;;;;;4.85;2.13;;;24.30;99.90;;;;;;4952136;28;20222;-77
2022/08/11 01:02:11;;;;;;;3.15;1.90;;;24.20;99.90;;;;;;5005871;28;20202;-77
2022/08/11 01:05:11;;;;;;;3.40;2.28;;;24.10;99.90;;;;;;5031835;28;20195;-77
2022/08/11 01:11:24;;;;;;;2.80;2.00;;;24.00;99.90;;;;;;5081509;27;20609;-75
2022/08/11 01:14:33;;;;;;;2.42;1.98;;;23.90;99.90;;;;;;5047962;28;20239;-76
2022/08/11 01:17:34;;;;;;;3.72;1.90;;;23.80;99.90;;;;;;5046073;28;20207;-75
2022/08/11 01:20:32;;;;;;;2.35;2.15;;;23.80;99.90;;;;;;5042662;28;20939;-76
2022/08/11 01:23:23;;;;;;;2.38;2.15;;;23.80;99.90;;;;;;5027951;28;20219;-76
2022/08/11 01:26:34;;;;;;;3.83;2.15;;;23.70;99.90;;;;;;5041212;28;20191;-75
2022/08/11 01:29:33;;;;;;;2.10;1.90;;;23.80;99.90;;;;;;5041328;28;20238;-75
2022/08/11 01:32:36;;;;;;;2.83;2.00;;;23.70;99.90;;;;;;5042442;28;20203;-75
2022/08/11 01:35:27;;;;;;;1.60;1.50;;;23.70;99.90;;;;;;5027541;28;20195;-76
2022/08/11 01:38:20;;;;;;;2.00;1.88;;;23.70;99.90;;;;;;5042367;28;20772;-75
2022/08/11 01:41:15;;;;;;;2.28;2.08;;;23.70;99.90;;;;;;5039690;28;20199;-76
2022/08/11 01:47:49;;;;;;;2.55;1.70;;;23.70;99.90;;;;;;5044170;28;20575;-75
2022/08/11 01:50:08;;;;;;;2.08;1.88;;;23.70;99.90;;;;;;5042800;28;20946;-76
2022/08/11 01:52:51;;;;;;;1.92;1.80;;;23.70;99.90;;;;;;5048274;28;20222;-74
2022/08/11 01:55:25;;;;;;;1.70;1.60;;;23.70;99.90;;;;;;5043810;28;20661;-75
2022/08/11 01:58:05;;;;;;;3.08;1.90;;;23.70;99.90;;;;;;5041120;28;20224;-75
2022/08/11 02:00:46;;;;;;;4.22;2.00;;;23.60;99.90;;;;;;5050737;28;20190;-75
2022/08/11 02:03:20;;;;;;;2.25;1.90;;;23.60;99.90;;;;;;5043357;28;20219;-75
2022/08/11 02:06:53;;;;;;;3.38;1.92;;;23.50;99.90;;;;;;5044324;28;20195;-75
2022/08/11 02:08:59;;;;;;;1.80;1.70;;;23.50;99.90;;;;;;5039515;28;20234;-75
2022/08/11 02:11:29;;;;;;;1.42;1.33;;;23.50;99.90;;;;;;5039574;28;20198;-76
2022/08/11 02:14:02;;;;;;;1.85;1.75;;;23.50;99.90;;;;;;5035707;28;20218;-75
2022/08/11 02:16:46;;;;;;;1.83;1.50;;;23.50;99.90;;;;;;5041131;28;20606;-75
2022/08/11 02:25:07;;;;;;;3.47;2.10;;;22.90;99.90;;;;;;5027202;28;20240;-76
2022/08/11 02:27:43;;;;;;;2.35;1.80;;;22.70;99.90;;;;;;5025948;28;20220;-76
2022/08/11 02:30:14;;;;;;;2.60;1.80;;;22.60;99.90;;;;;;5029257;28;20227;-77
2022/08/11 02:35:46;;;;;;;2.95;2.13;;;22.60;99.90;;;;;;5027486;28;20279;-75
2022/08/11 02:38:25;;;;;;;2.88;1.98;;;22.40;99.90;;;;;;5027573;22;20258;-76
2022/08/11 02:42:21;;;;;;;2.10;2.00;;;22.30;99.90;;;;;;5007690;28;20568;-77
2022/08/11 02:44:12;;;;;;;2.05;1.40;;;22.30;99.90;;;;;;5008037;28;20215;-77
2022/08/11 02:46:51;;;;;;;1.73;1.63;;;22.40;99.90;;;;;;5010184;28;20212;-77
2022/08/11 02:52:26;;;;;;;1.52;1.42;;;22.70;99.90;;;;;;5007919;28;20698;-77
2022/08/11 02:55:16;;;;;;;1.70;1.60;;;22.70;99.90;;;;;;5016786;28;20287;-79
2022/08/11 02:57:51;;;;;;;1.75;1.63;;;22.70;99.90;;;;;;5008632;28;20235;-79
2022/08/11 03:00:18;;;;;;;2.35;1.55;;;22.70;99.90;;;;;;5006540;28;20187;-79
2022/08/11 03:03:07;;;;;;;2.00;1.73;;;22.50;99.90;;;;;;5009353;28;20231;-76
2022/08/11 03:05:48;;;;;;;1.73;1.63;;;22.50;99.90;;;;;;5008562;28;20189;-76
2022/08/11 03:08:40;;;;;;;2.30;2.08;;;22.60;99.90;;;;;;5006276;28;20756;-76
2022/08/11 03:17:12;;;;;;;1.50;1.40;;;22.50;99.90;;;;;;5007025;28;20317;-76
2022/08/11 03:19:49;;;;;;;1.60;1.50;;;22.50;99.90;;;;;;5008486;28;20193;-75
2022/08/11 03:22:22;;;;;;;1.63;1.52;;;22.50;99.90;;;;;;5005328;28;20231;-75
2022/08/11 03:25:01;;;;;;;2.03;1.83;;;22.30;99.90;;;;;;5010121;28;20196;-75
2022/08/11 03:27:39;;;;;;;2.55;1.80;;;22.40;99.90;;;;;;5003452;28;20227;-78
2022/08/11 03:30:13;;;;;;;2.05;1.85;;;22.50;99.90;;;;;;5009576;28;20275;-77
2022/08/11 03:35:41;;;;;;;1.63;1.52;;;22.50;99.90;;;;;;5007589;28;20658;-79
2022/08/11 03:38:14;;;;;;;1.90;1.80;;;22.50;99.90;;;;;;5006332;28;20784;-79
2022/08/11 03:43:55;;;;;;;2.75;1.67;;;22.60;99.90;;;;;;5006534;28;20227;-79
2022/08/11 03:46:38;;;;;;;2.35;1.98;;;22.60;99.90;;;;;;5016918;28;20201;-78
2022/08/11 03:49:16;;;;;;;1.60;1.50;;;22.50;99.90;;;;;;5007222;28;20224;-79
2022/08/11 03:51:51;;;;;;;1.75;1.60;;;22.50;99.90;;;;;;5004289;28;20204;-78
2022/08/11 03:54:29;;;;;;;1.58;1.48;;;22.50;99.90;;;;;;5006337;28;20219;-77
2022/08/11 03:57:43;;;;;;;1.77;1.58;;;22.50;99.90;;;;;;5006489;28;20239;-78
2022/08/11 04:00:36;;;;;;;1.85;1.40;;;22.50;99.90;;;;;;4894580;28;20207;-77
2022/08/11 04:03:45;;;;;;;1.70;1.60;;;22.60;99.90;;;;;;5003223;28;20219;-78
2022/08/11 04:07:00;;;;;;;2.17;1.63;;;22.70;99.90;;;;;;5005165;28;20223;-78
2022/08/11 04:10:04;;;;;;;1.60;1.50;;;22.70;99.90;;;;;;5005137;28;20220;-78
2022/08/11 04:12:59;;;;;;;1.40;1.30;;;22.70;99.90;;;;;;5004733;28;20223;-79
2022/08/11 04:16:01;;;;;;;1.50;1.40;;;22.70;99.90;;;;;;5005578;28;20204;-78
2022/08/11 04:19:16;;;;;;;1.50;1.40;;;22.70;99.90;;;;;;5003089;28;20267;-78
2022/08/11 04:22:08;;;;;;;1.58;1.48;;;22.70;99.90;;;;;;5005423;28;20582;-78
2022/08/11 04:25:08;;;;;;;1.50;1.40;;;22.70;99.90;;;;;;5005069;28;20729;-78
2022/08/11 04:28:17;;;;;;;1.30;1.20;;;22.70;99.90;;;;;;5005703;28;20328;-78
2022/08/11 04:31:09;;;;;;;1.67;1.55;;;22.70;99.90;;;;;;5009076;28;20216;-78
2022/08/11 04:33:58;;;;;;;1.50;1.40;;;22.70;99.90;;;;;;5004788;28;20235;-78
2022/08/11 04:40:00;;;;;;;1.50;1.40;;;22.60;99.90;;;;;;5010552;28;20650;-79
2022/08/11 04:43:20;;;;;;;1.60;1.50;;;22.60;99.90;;;;;;5003185;28;20247;-78
2022/08/11 04:46:13;;;;;;;1.90;1.80;;;22.40;99.90;;;;;;5002400;28;20200;-78
2022/08/11 05:08:00;;;;;;;2.42;1.80;;;22.60;99.90;;;;;;5004244;28;20227;-78
2022/08/11 05:10:45;;;;;;;3.00;1.80;;;22.60;99.90;;;;;;5002673;28;20626;-78
2022/08/11 05:36:16;;;;;;;2.15;1.83;;;22.50;99.90;;;;;;5005607;28;20339;-76
2022/08/11 05:58:14;;;;;;;2.10;2.00;;;23.10;99.90;;;;;;5006626;28;20469;-79
2022/08/11 06:00:46;;;;;;;2.15;1.95;;;23.10;99.90;;;;;;5011026;28;20199;-79
2022/08/11 06:03:26;;;;;;;2.85;2.00;;;23.30;99.90;;;;;;5009577;28;20615;-76
2022/08/11 06:05:57;;;;;;;2.05;1.88;;;23.50;99.90;;;;;;5004882;28;20287;-78
2022/08/11 06:08:30;;;;;;;2.17;1.98;;;23.40;99.90;;;;;;5005889;28;20227;-79
2022/08/11 06:11:03;;;;;;;2.50;2.30;;;23.30;99.90;;;;;;5004062;28;20227;-78
2022/08/11 06:13:31;;;;;;;2.15;2.03;;;23.20;99.90;;;;;;5006849;28;20224;-78
2022/08/11 06:15:59;;;;;;;2.40;2.20;;;23.10;99.90;;;;;;5009944;28;20204;-78
2022/08/11 06:18:28;;;;;;;2.47;2.35;;;23.10;99.90;;;;;;5006478;28;20224;-78
2022/08/11 06:20:59;;;;;;;2.75;2.47;;;23.10;99.90;;;;;;5021631;28;20200;-78
2022/08/11 06:23:33;;;;;;;2.55;2.30;;;23.20;99.90;;;;;;5003728;28;20217;-79
2022/08/11 06:26:01;;;;;;;4.60;2.20;;;23.40;99.90;;;;;;5010056;28;20204;-78
2022/08/11 06:28:33;;;;;;;2.30;2.10;;;23.40;99.90;;;;;;5009876;28;20220;-77
2022/08/11 06:31:02;;;;;;;3.03;2.10;;;23.30;99.90;;;;;;5017192;28;20235;-77
2022/08/11 06:33:42;;;;;;;2.85;2.53;;;23.10;99.90;;;;;;5012280;28;20601;-79
2022/08/11 06:36:15;;;;;;;2.70;2.33;;;22.90;99.90;;;;;;5002589;28;20204;-77
2022/08/11 06:38:57;;;;;;;2.70;2.50;;;22.70;99.90;;;;;;5000554;28;20749;-78
2022/08/11 06:41:33;;;;;;;2.63;2.25;;;22.60;99.90;;;;;;5002749;28;20199;-78
2022/08/11 06:44:15;;;;;;;2.13;1.92;;;22.60;99.90;;;;;;5003117;28;20215;-78
2022/08/11 06:46:44;;;;;;;2.75;2.17;;;22.80;99.90;;;;;;5002497;28;20338;-79
2022/08/11 06:51:59;;;;;;;4.40;2.30;;;23.00;99.90;;;;;;4999325;28;20872;-79
2022/08/11 06:54:29;;;;;;;2.30;2.10;;;23.20;99.90;;;;;;5002126;28;20286;-78
2022/08/11 07:02:32;;;;;;;3.17;2.30;;;23.20;99.90;;;;;;5002287;28;20807;-77
2022/08/11 07:05:03;;;;;;;2.97;2.63;;;23.10;99.90;;;;;;5004234;28;20203;-78
2022/08/11 07:16:47;;;;;;;5.03;2.63;;;22.80;99.90;;;;;;5003790;28;20326;-77
2022/08/11 07:30:28;;;;;;;3.92;2.33;;;22.90;99.90;;;;;;4999803;28;20273;-76
2022/08/11 07:32:58;;;;;;;2.40;2.20;;;23.30;99.90;;;;;;5004570;28;20220;-79
2022/08/11 07:35:31;;;;;;;2.55;2.22;;;23.70;99.90;;;;;;5001840;28;20757;-78
2022/08/11 07:38:02;;;;;;;2.50;2.22;;;23.90;99.90;;;;;;5001314;28;20305;-78
2022/08/11 07:40:32;;;;;;;2.70;2.33;;;24.10;99.90;;;;;;5001474;28;20196;-75
2022/08/11 07:43:00;;;;;;;3.20;2.30;;;24.30;99.90;;;;;;5003343;28;20249;-76
2022/08/11 07:53:44;;;;;;;2.10;1.90;;;24.90;99.90;;;;;;4999622;28;20806;-78
2022/08/11 07:56:15;;;;;;;2.35;2.05;;;24.90;99.90;;;;;;5002527;28;20200;-78
2022/08/11 08:18:08;;;;;;;2.10;2.00;;;25.00;99.90;;;;;;4997687;28;20267;-76
2022/08/11 08:20:37;;;;;;;2.58;1.90;;;25.00;99.90;;;;;;5000118;28;20200;-76
2022/08/11 08:23:06;;;;;;;3.58;2.28;;;25.30;99.90;;;;;;4999951;28;20724;-79
2022/08/11 08:25:35;;;;;;;4.30;2.55;;;25.80;99.90;;;;;;4997646;28;20200;-78
2022/08/11 08:28:07;;;;;;;5.72;2.00;;;25.90;99.90;;;;;;5001471;28;20232;-79
2022/08/11 08:30:49;;;;;;;1.98;1.88;;;25.90;99.90;;;;;;4998050;28;20316;-79
2022/08/11 08:33:20;;;;;;;2.45;1.80;;;26.30;99.90;;;;;;5001918;28;20227;-79
2022/08/11 08:35:48;;;;;;;3.08;1.95;;;26.60;99.90;;;;;;4998077;28;20203;-79
2022/08/11 08:38:16;;;;;;;2.10;2.00;;;26.70;99.90;;;;;;4999570;28;20538;-79
2022/08/11 08:40:45;;;;;;;2.58;2.33;;;27.00;99.90;;;;;;5000024;28;20201;-79
2022/08/11 08:43:17;;;;;;;2.88;2.15;;;27.10;99.90;;;;;;5000699;28;20220;-78
2022/08/11 08:45:45;;;;;;;3.17;1.75;;;27.10;99.90;;;;;;5003049;28;20655;-77
2022/08/11 08:48:15;;;;;;;2.30;2.10;;;27.20;99.90;;;;;;5000566;28;20228;-79
2022/08/11 08:53:35;;;;;;;3.38;2.17;;;27.40;99.90;;;;;;5001916;28;20227;-79
2022/08/11 08:56:04;;;;;;;3.15;2.08;;;27.50;99.90;;;;;;5000345;28;20207;-78
2022/08/11 08:58:35;;;;;;;2.15;1.95;;;27.70;99.90;;;;;;5005320;28;20224;-78
2022/08/11 09:01:03;;;;;;;4.60;2.22;;;27.90;99.90;;;;;;5000833;28;20246;-78
2022/08/11 09:03:32;;;;;;;2.03;1.80;;;27.90;99.90;;;;;;5002253;28;20973;-79
2022/08/11 09:05:59;;;;;;;2.53;2.33;;;27.90;99.90;;;;;;5002202;28;20667;-80
2022/08/11 09:08:28;;;;;;;2.47;2.10;;;27.90;99.90;;;;;;5000945;28;20224;-78
2022/08/11 09:13:46;;;;;;;2.35;1.90;;;27.60;99.90;;;;;;5008913;28;20227;-80
2022/08/11 09:16:13;;;;;;;3.30;2.30;;;27.80;99.90;;;;;;5030423;23;20196;-76
2022/08/11 09:18:43;;;;;;;2.47;2.28;;;27.90;99.90;;;;;;5024551;28;20216;-77
2022/08/11 09:21:13;;;;;;;2.33;2.13;;;27.90;99.90;;;;;;5031850;28;20219;-78
2022/08/11 09:29:13;;;;;;;2.95;2.25;;;28.10;99.90;;;;;;5036937;28;20222;-78
2022/08/11 09:31:41;;;;;;;3.15;2.50;;;28.00;99.90;;;;;;5035600;28;20219;-78
2022/08/11 09:34:10;;;;;;;2.15;1.92;;;28.10;99.90;;;;;;5034395;28;20758;-78
2022/08/11 09:42:11;;;;;;;3.60;2.00;;;28.40;99.90;;;;;;5035347;28;20245;-78
2022/08/11 09:44:49;;;;;;;2.03;1.92;;;28.30;99.90;;;;;;5039620;28;20191;-78
2022/08/11 09:47:23;;;;;;;2.40;1.70;;;28.40;99.90;;;;;;5035923;28;20533;-77
2022/08/11 09:49:53;;;;;;;2.40;2.10;;;28.40;99.90;;;;;;5040955;28;20206;-78
2022/08/11 09:52:22;;;;;;;2.08;1.88;;;28.60;99.90;;;;;;5037259;28;20219;-78
2022/08/11 09:54:52;;;;;;;4.50;1.88;;;28.70;99.90;;;;;;5045812;28;20665;-78
2022/08/11 10:00:10;;;;;;;2.40;2.03;;;29.00;99.90;;;;;;5032824;28;20287;-77
2022/08/11 10:02:43;;;;;;;2.22;1.98;;;29.30;99.90;;;;;;5029074;28;20219;-76
2022/08/11 10:07:57;;;;;;;3.33;1.90;;;29.00;99.90;;;;;;5032052;28;20720;-78
2022/08/11 10:10:24;;;;;;;1.80;1.48;;;29.10;99.90;;;;;;5030867;28;20302;-77
2022/08/11 10:12:58;;;;;;;1.70;1.60;;;29.00;99.90;;;;;;5041680;28;20223;-78
2022/08/11 10:15:33;;;;;;;2.50;2.30;;;29.00;99.90;;;;;;5039049;28;20196;-77
2022/08/11 10:20:53;;;;;;;3.05;1.77;;;29.10;99.90;;;;;;5030553;28;20201;-77
2022/08/11 10:28:53;;;;;;;1.55;1.40;;;29.10;99.90;;;;;;5026547;28;20635;-77
2022/08/11 10:34:14;;;;;;;1.73;1.52;;;29.10;99.90;;;;;;4981697;28;20266;-77
2022/08/11 10:36:45;;;;;;;2.83;1.60;;;29.30;99.90;;;;;;5027862;28;20226;-77
2022/08/11 10:39:16;;;;;;;1.92;1.50;;;29.10;99.90;;;;;;5022325;28;20291;-75
2022/08/11 10:44:32;;;;;;;2.08;1.73;;;29.00;99.90;;;;;;5024429;28;20219;-75
2022/08/11 10:51:11;;;;;;;1.67;1.58;;;29.30;99.90;;;;;;5025736;28;20729;-76
2022/08/11 11:00:55;;;;;;;2.85;1.77;;;29.40;99.90;;;;;;5022561;28;20689;-73
2022/08/11 11:03:26;;;;;;;3.97;1.63;;;29.30;99.90;;;;;;5030196;28;20215;-76
2022/08/11 11:06:01;;;;;;;1.50;1.35;;;29.30;99.90;;;;;;5028229;28;20919;-75
2022/08/11 11:11:18;;;;;;;1.63;1.40;;;29.40;99.90;;;;;;5025724;28;20602;-75
2022/08/11 11:19:24;;;;;;;2.63;1.70;;;29.20;99.90;;;;;;5021274;28;20269;-75
2022/08/11 11:22:36;;;;;;;2.75;1.40;;;29.10;99.80;;;;;;5021115;28;20196;-76
2022/08/11 11:24:51;;;;;;;2.53;1.60;;;29.10;99.90;;;;;;5025247;28;20207;-76
2022/08/11 11:27:25;;;;;;;4.22;1.58;;;29.40;99.90;;;;;;5019181;28;20576;-73
2022/08/11 11:30:02;;;;;;;2.72;1.70;;;29.50;99.60;;;;;;5022757;28;20200;-74
2022/08/11 11:32:40;;;;;;;2.22;1.73;;;29.40;99.90;;;;;;5019988;28;20258;-76
2022/08/11 11:35:26;;;;;;;1.85;1.75;;;29.50;99.30;;;;;;5023547;28;20256;-74
2022/08/11 11:37:54;;;;;;;1.65;1.55;;;29.60;99.70;;;;;;5017242;28;20223;-76
2022/08/11 11:40:23;;;;;;;1.70;1.60;;;29.90;99.80;;;;;;5022181;28;20199;-75
2022/08/11 11:42:53;;;;;;;1.98;1.60;;;30.00;99.00;;;;;;5025144;28;20694;-75
2022/08/11 11:45:24;;;;;;;3.67;1.98;;;29.90;98.50;;;;;;5027350;28;20221;-75
2022/08/11 11:47:53;;;;;;;1.92;1.80;;;30.00;98.60;;;;;;5022598;28;20645;-75
2022/08/11 11:50:26;;;;;;;1.92;1.70;;;30.00;98.80;;;;;;5015935;28;20203;-74
2022/08/11 11:52:55;;;;;;;1.63;1.52;;;30.00;97.90;;;;;;5020897;28;20223;-75
2022/08/11 11:55:24;;;;;;;2.85;1.70;;;30.10;98.50;;;;;;5019089;28;20192;-75
2022/08/11 12:03:23;;;;;;;2.45;1.55;;;30.10;98.30;;;;;;5022740;28;20239;-75
2022/08/11 12:05:53;;;;;;;2.03;1.83;;;30.00;97.80;;;;;;5027437;28;20200;-74
2022/08/11 12:08:22;;;;;;;2.47;1.58;;;30.10;98.10;;;;;;5023087;28;20223;-74
2022/08/11 12:13:39;;;;;;;1.88;1.70;;;30.10;98.20;;;;;;5023855;28;20199;-75
2022/08/11 12:13:39;;;;;;;1.92;1.80;;;30.10;97.90;;;;;;5028119;28;20221;-75
2022/08/11 12:16:09;;;;;;;1.85;1.75;;;30.10;98.00;;;;;;5031593;28;20218;-73
2022/08/11 12:18:38;;;;;;;2.35;1.58;;;30.20;98.60;;;;;;5033638;28;20212;-74
2022/08/11 12:21:08;;;;;;;2.15;1.95;;;30.30;98.40;;;;;;5019621;28;20208;-75
2022/08/11 12:29:26;;;;;;;1.75;1.65;;;30.70;96.90;;;;;;4977176;28;20228;-73
2022/08/11 12:31:54;;;;;;;2.35;1.85;;;30.60;96.80;;;;;;5012744;28;20762;-75
2022/08/11 12:34:23;;;;;;;1.88;1.70;;;30.50;96.20;;;;;;5021465;28;20254;-75
2022/08/11 12:36:57;;;;;;;1.70;1.60;;;30.50;96.50;;;;;;5031636;28;20219;-75
2022/08/11 12:53:14;;;;;;;2.33;1.92;;;31.00;96.40;;;;;;5028160;28;20225;-76
2022/08/11 12:58:28;;;;;;;1.80;1.70;;;31.00;95.60;;;;;;5033551;28;20819;-75
2022/08/11 13:06:26;;;;;;;1.70;1.60;;;31.10;95.10;;;;;;5030586;28;20219;-76
2022/08/11 13:08:58;;;;;;;2.08;1.75;;;31.20;94.80;;;;;;5027526;28;20226;-75
2022/08/11 13:14:10;;;;;;;1.77;1.67;;;31.20;93.70;;;;;;5027917;28;20778;-75
2022/08/11 13:19:20;;;;;;;2.72;2.03;;;31.20;94.30;;;;;;5025365;28;20211;-75
2022/08/11 13:21:49;;;;;;;1.63;1.52;;;31.20;93.80;;;;;;5030980;28;20196;-76
2022/08/11 13:24:20;;;;;;;8.30;2.40;;;31.20;93.70;;;;;;5032067;28;20203;-77
2022/08/11 13:26:49;;;;;;;2.13;1.83;;;31.20;93.10;;;;;;5029419;28;20221;-76
2022/08/11 13:29:20;;;;;;;3.75;2.10;;;31.20;93.10;;;;;;5033420;28;20197;-75
2022/08/11 13:31:48;;;;;;;2.00;1.80;;;31.30;93.30;;;;;;5025183;28;20211;-77
2022/08/11 13:34:16;;;;;;;3.83;1.90;;;31.20;92.90;;;;;;5036066;28;20650;-76
2022/08/11 13:36:44;;;;;;;3.67;1.80;;;31.00;92.90;;;;;;5037873;28;20258;-76
2022/08/11 13:39:13;;;;;;;3.50;2.17;;;30.90;93.10;;;;;;5035547;28;20222;-76
2022/08/11 13:41:45;;;;;;;2.00;1.90;;;30.80;92.90;;;;;;5029410;28;20198;-76
2022/08/11 13:44:16;;;;;;;5.18;2.00;;;30.80;92.90;;;;;;5032368;28;20755;-77
2022/08/11 13:46:44;;;;;;;6.55;2.30;;;30.80;92.70;;;;;;5022383;28;20219;-76
2022/08/11 13:49:15;;;;;;;2.30;1.88;;;30.90;93.30;;;;;;5028348;28;20218;-74
2022/08/11 13:51:44;;;;;;;4.07;2.13;;;30.90;93.30;;;;;;5035716;28;20199;-75
2022/08/11 13:54:17;;;;;;;13.65;3.28;;;30.80;93.40;;;;;;5039104;28;20215;-76
2022/08/11 13:56:48;;;;;;;2.65;2.08;;;30.80;93.10;;;;;;5035306;28;20628;-75
2022/08/11 13:59:19;;;;;;;2.13;1.92;;;30.90;93.20;;;;;;5025549;28;20615;-76
2022/08/11 14:01:49;;;;;;;3.75;2.15;;;31.00;93.30;;;;;;5028281;28;20208;-76
2022/08/11 14:04:23;;;;;;;1.95;1.75;;;30.90;92.70;;;;;;5026711;28;20215;-75
2022/08/11 14:06:53;;;;;;;1.95;1.73;;;30.90;93.10;;;;;;5025159;28;20820;-76
2022/08/11 14:09:26;;;;;;;2.20;1.95;;;30.80;93.10;;;;;;5029985;28;20200;-75
2022/08/11 14:14:47;;;;;;;1.90;1.80;;;30.80;92.70;;;;;;5037325;28;20260;-76
2022/08/11 14:17:17;;;;;;;2.15;2.05;;;30.70;93.30;;;;;;5041842;28;20291;-76
2022/08/11 14:19:50;;;;;;;2.45;2.00;;;30.80;93.90;;;;;;5039537;28;20575;-76
2022/08/11 14:22:17;;;;;;;3.35;1.90;;;30.60;92.90;;;;;;5036899;28;20592;-76
2022/08/11 14:24:48;;;;;;;5.15;2.00;;;30.60;93.20;;;;;;5039436;28;20257;-76
2022/08/11 14:27:25;;;;;;;3.00;1.90;;;30.70;93.40;;;;;;5025387;28;20249;-76
2022/08/11 14:29:53;;;;;;;2.47;1.98;;;30.80;92.70;;;;;;5027948;28;20205;-75
2022/08/11 14:32:21;;;;;;;2.03;1.83;;;30.70;93.10;;;;;;5026855;28;20224;-76
2022/08/11 14:34:50;;;;;;;2.65;2.10;;;30.70;93.40;;;;;;5029939;28;20200;-76
2022/08/11 14:37:21;;;;;;;2.53;2.33;;;30.70;92.80;;;;;;5033610;28;20235;-76
2022/08/11 14:39:52;;;;;;;2.67;1.92;;;30.60;92.80;;;;;;5028846;28;20537;-77
2022/08/11 14:48:08;;;;;;;2.20;2.00;;;30.30;92.40;;;;;;5027109;28;20223;-75
2022/08/11 14:50:36;;;;;;;3.72;2.10;;;30.10;92.60;;;;;;5046965;28;20195;-75
2022/08/11 14:53:10;;;;;;;3.25;1.80;;;30.20;92.40;;;;;;5039391;28;20220;-77
2022/08/11 14:58:30;;;;;;;2.47;1.70;;;30.40;92.50;;;;;;5030161;28;20601;-75
2022/08/11 15:00:59;;;;;;;3.08;2.03;;;30.40;92.30;;;;;;5042135;28;20206;-78
2022/08/11 15:03:32;;;;;;;2.30;2.10;;;30.20;92.30;;;;;;5040746;28;20211;-76
2022/08/11 15:06:01;;;;;;;3.85;2.35;;;30.10;92.50;;;;;;5047342;28;20213;-76
2022/08/11 15:14:06;;;;;;;4.28;2.00;;;30.20;93.30;;;;;;5042394;28;20277;-77
2022/08/11 15:19:20;;;;;;;2.00;1.63;;;30.10;92.60;;;;;;5049087;22;20596;-78
2022/08/11 15:24:35;;;;;;;4.22;1.90;;;30.10;92.70;;;;;;5032953;28;20262;-76
2022/08/11 15:38:14;;;;;;;3.20;2.00;;;29.70;93.20;;;;;;5048783;28;20233;-80
2022/08/11 15:46:23;;;;;;;3.63;2.08;;;29.30;93.50;;;;;;5047227;28;20233;-77
2022/08/11 15:48:56;;;;;;;3.33;1.98;;;29.30;93.50;;;;;;5044893;28;20214;-77
2022/08/11 15:51:35;;;;;;;2.20;2.00;;;29.20;93.40;;;;;;5048976;28;20214;-77
2022/08/11 15:54:08;;;;;;;2.92;1.90;;;29.10;93.70;;;;;;5044278;28;20225;-78
2022/08/11 15:56:37;;;;;;;3.22;1.85;;;29.20;93.70;;;;;;5055971;28;20700;-77
2022/08/11 16:04:55;;;;;;;5.50;2.33;;;28.90;94.00;;;;;;4972331;28;20204;-77
2022/08/11 16:07:26;;;;;;;2.10;1.90;;;28.80;94.10;;;;;;4948426;28;20225;-77
2022/08/11 16:09:57;;;;;;;2.08;1.83;;;28.80;94.10;;;;;;5011086;28;20211;-78
2022/08/11 16:12:28;;;;;;;3.20;1.90;;;28.70;94.50;;;;;;5046422;28;20214;-78
2022/08/11 16:17:49;;;;;;;2.90;2.00;;;28.50;94.20;;;;;;5039519;28;20221;-77
2022/08/11 16:20:21;;;;;;;3.03;1.90;;;28.40;94.20;;;;;;5042209;28;20278;-79
2022/08/11 16:22:50;;;;;;;1.92;1.83;;;28.50;94.30;;;;;;5037133;28;20237;-78
2022/08/11 16:25:22;;;;;;;2.45;2.10;;;28.40;94.40;;;;;;5042084;28;20195;-78
2022/08/11 16:27:52;;;;;;;2.00;1.88;;;28.30;94.30;;;;;;5043012;28;20483;-77
2022/08/11 16:30:19;;;;;;;1.67;1.58;;;28.30;94.50;;;;;;5050342;28;20680;-80
2022/08/11 16:32:51;;;;;;;4.57;2.20;;;28.30;94.50;;;;;;5052528;28;20237;-76
2022/08/11 16:40:53;;;;;;;3.15;1.70;;;28.20;94.80;;;;;;5043725;28;20208;-77
2022/08/11 16:48:56;;;;;;;4.55;1.95;;;28.10;95.10;;;;;;5041798;28;20667;-77
2022/08/11 16:51:24;;;;;;;1.83;1.73;;;28.10;95.20;;;;;;5043610;28;20206;-77
2022/08/11 16:53:51;;;;;;;1.75;1.65;;;28.00;95.20;;;;;;5046293;28;21563;-78
2022/08/11 16:56:21;;;;;;;1.92;1.73;;;28.10;95.50;;;;;;5049538;28;20402;-76
2022/08/11 17:01:39;;;;;;;4.90;2.22;;;28.00;95.20;;;;;;5051782;28;20205;-78
2022/08/11 17:21:04;;;;;;;5.18;1.90;;;27.70;95.50;;;;;;5051218;28;20191;-78
2022/08/11 17:23:49;;;;;;;2.63;1.70;;;27.70;95.50;;;;;;5054433;28;20299;-76
2022/08/11 17:26:22;;;;;;;2.33;2.00;;;27.60;95.30;;;;;;5049531;28;20197;-77
2022/08/11 17:28:51;;;;;;;2.22;1.80;;;27.60;95.00;;;;;;5050011;28;20226;-79
2022/08/11 17:36:54;;;;;;;2.90;1.70;;;27.40;95.00;;;;;;5049898;28;20297;-78
2022/08/11 17:39:27;;;;;;;1.85;1.60;;;27.30;94.90;;;;;;5048956;28;20657;-78
2022/08/11 17:50:13;;;;;;;3.10;1.85;;;27.10;95.10;;;;;;5051641;28;20267;-77
2022/08/11 18:01:01;;;;;;;1.60;1.40;;;26.90;95.40;;;;;;5048529;28;20198;-78
2022/08/11 18:03:28;;;;;;;1.80;1.42;;;26.80;95.50;;;;;;5058975;28;20215;-78
2022/08/11 18:05:57;;;;;;;2.00;1.80;;;26.70;95.50;;;;;;5063904;28;20301;-78
